Wetterdaten: Woche 04.06.07 - 10.06.07 (KW23)
Datum Zeit Temperatur Luftfeuchte Luftdruck Niederschlag
04.06.2007 00:00 15,2 C 84 % 1020 hPa 0,0 l/m
04.06.2007 01:00 14,7 C 85 % 1020 hPa 0,0 l/m
04.06.2007 02:00 13,9 C 89 % 1020 hPa 0,0 l/m
04.06.2007 03:00 13,3 C 91 % 1020 hPa 0,0 l/m
04.06.2007 04:00 12,6 C 93 % 1019 hPa 0,0 l/m
04.06.2007 05:00 12,2 C 95 % 1020 hPa 0,0 l/m
04.06.2007 06:00 12,3 C 96 % 1020 hPa 0,0 l/m
04.06.2007 07:00 13,3 C 98 % 1020 hPa 0,0 l/m
04.06.2007 08:00 14,8 C 97 % 1020 hPa 0,0 l/m
04.06.2007 09:00 17,9 C 73 % 1020 hPa 0,0 l/m
04.06.2007 10:00 19,8 C 63 % 1020 hPa 0,0 l/m
04.06.2007 11:00 21,2 C 55 % 1020 hPa 0,0 l/m
04.06.2007 12:00 22,5 C 46 % 1020 hPa 0,0 l/m
04.06.2007 13:00 23,2 C 42 % 1019 hPa 0,0 l/m
04.06.2007 14:00 23,1 C 44 % 1019 hPa 0,0 l/m
04.06.2007 15:00 23,3 C 44 % 1019 hPa 0,0 l/m
04.06.2007 16:00 22,8 C 44 % 1019 hPa 0,0 l/m
04.06.2007 17:00 22,6 C 45 % 1019 hPa 0,0 l/m
04.06.2007 18:00 22,5 C 45 % 1018 hPa 0,0 l/m
04.06.2007 19:00 21,4 C 48 % 1018 hPa 0,0 l/m
04.06.2007 20:00 20,5 C 54 % 1019 hPa 0,0 l/m
04.06.2007 21:00 18,9 C 64 % 1019 hPa 0,0 l/m
04.06.2007 22:00 17,1 C 73 % 1019 hPa 0,0 l/m
04.06.2007 23:00 15,8 C 80 % 1019 hPa 0,0 l/m
05.06.2007 00:00 15,1 C 84 % 1019 hPa 0,0 l/m
05.06.2007 01:00 14,5 C 87 % 1018 hPa 0,0 l/m
05.06.2007 02:00 14,1 C 90 % 1018 hPa 0,0 l/m
05.06.2007 03:00 13,9 C 91 % 1018 hPa 0,0 l/m
05.06.2007 04:00 13,5 C 92 % 1018 hPa 0,0 l/m
05.06.2007 05:00 13,1 C 93 % 1018 hPa 0,0 l/m
05.06.2007 06:00 13,0 C 94 % 1018 hPa 0,0 l/m
05.06.2007 07:00 14,9 C 88 % 1018 hPa 0,0 l/m
05.06.2007 08:00 16,5 C 75 % 1018 hPa 0,0 l/m
05.06.2007 09:00 18,5 C 68 % 1018 hPa 0,0 l/m
05.06.2007 10:00 20,2 C 60 % 1018 hPa 0,0 l/m
05.06.2007 11:00 21,4 C 52 % 1018 hPa 0,0 l/m
05.06.2007 12:00 22,2 C 45 % 1017 hPa 0,0 l/m
05.06.2007 13:00 22,8 C 44 % 1017 hPa 0,0 l/m
05.06.2007 14:00 22,1 C 46 % 1017 hPa 0,0 l/m
05.06.2007 15:00 22,4 C 44 % 1016 hPa 0,0 l/m
05.06.2007 16:00 23,8 C 41 % 1016 hPa 0,0 l/m
05.06.2007 17:00 22,9 C 43 % 1015 hPa 0,0 l/m
05.06.2007 18:00 22,2 C 46 % 1015 hPa 0,0 l/m
05.06.2007 19:00 21,6 C 49 % 1015 hPa 0,0 l/m
05.06.2007 20:00 20,6 C 52 % 1015 hPa 0,0 l/m
05.06.2007 21:00 19,4 C 58 % 1016 hPa 0,0 l/m
05.06.2007 22:00 18,6 C 62 % 1016 hPa 0,0 l/m
05.06.2007 23:00 17,8 C 68 % 1016 hPa 0,0 l/m
06.06.2007 00:00 17,4 C 70 % 1015 hPa 0,0 l/m
06.06.2007 01:00 16,7 C 72 % 1015 hPa 0,0 l/m
06.06.2007 02:00 15,9 C 75 % 1015 hPa 0,0 l/m
06.06.2007 03:00 15,0 C 80 % 1015 hPa 0,0 l/m
06.06.2007 04:00 14,1 C 84 % 1015 hPa 0,0 l/m
06.06.2007 05:00 13,6 C 88 % 1014 hPa 0,0 l/m
06.06.2007 06:00 13,8 C 90 % 1014 hPa 0,0 l/m
06.06.2007 07:00 14,7 C 90 % 1014 hPa 0,0 l/m
06.06.2007 08:00 15,8 C 83 % 1014 hPa 0,0 l/m
06.06.2007 09:00 16,4 C 77 % 1014 hPa 0,0 l/m
06.06.2007 10:00 17,3 C 71 % 1015 hPa 0,0 l/m
06.06.2007 11:00 18,6 C 66 % 1015 hPa 0,0 l/m
06.06.2007 12:00 19,7 C 61 % 1015 hPa 0,0 l/m
06.06.2007 13:00 20,8 C 56 % 1014 hPa 0,0 l/m
06.06.2007 14:00 22,0 C 50 % 1014 hPa 0,0 l/m
06.06.2007 15:00 23,0 C 46 % 1014 hPa 0,0 l/m
06.06.2007 16:00 23,5 C 44 % 1014 hPa 0,0 l/m
06.06.2007 17:00 23,6 C 44 % 1013 hPa 0,0 l/m
06.06.2007 18:00 23,3 C 44 % 1013 hPa 0,0 l/m
06.06.2007 19:00 23,0 C 45 % 1013 hPa 0,0 l/m
06.06.2007 20:00 21,9 C 51 % 1013 hPa 0,0 l/m
06.06.2007 21:00 20,5 C 61 % 1013 hPa 0,0 l/m
06.06.2007 22:00 19,0 C 69 % 1014 hPa 0,0 l/m
06.06.2007 23:00 17,7 C 76 % 1014 hPa 0,0 l/m
07.06.2007 00:00 16,8 C 83 % 1014 hPa 0,0 l/m
07.06.2007 01:00 16,1 C 88 % 1013 hPa 0,0 l/m
07.06.2007 02:00 15,5 C 90 % 1013 hPa 0,0 l/m
07.06.2007 03:00 15,0 C 92 % 1013 hPa 0,0 l/m
07.06.2007 04:00 14,5 C 94 % 1013 hPa 0,0 l/m
07.06.2007 05:00 14,1 C 94 % 1013 hPa 0,0 l/m
07.06.2007 06:00 14,2 C 96 % 1013 hPa 0,0 l/m
07.06.2007 07:00 15,0 C 96 % 1014 hPa 0,0 l/m
07.06.2007 08:00 15,6 C 94 % 1014 hPa 0,0 l/m
07.06.2007 09:00 17,8 C 88 % 1014 hPa 0,0 l/m
07.06.2007 10:00 21,1 C 65 % 1014 hPa 0,0 l/m
07.06.2007 11:00 22,6 C 55 % 1014 hPa 0,0 l/m
07.06.2007 12:00 23,6 C 50 % 1014 hPa 0,0 l/m
07.06.2007 13:00 25,1 C 44 % 1014 hPa 0,0 l/m
07.06.2007 14:00 25,8 C 42 % 1013 hPa 0,0 l/m
07.06.2007 15:00 27,0 C 34 % 1013 hPa 0,0 l/m
07.06.2007 16:00 27,4 C 31 % 1013 hPa 0,0 l/m
07.06.2007 17:00 26,9 C 32 % 1013 hPa 0,0 l/m
07.06.2007 18:00 26,3 C 33 % 1013 hPa 0,0 l/m
07.06.2007 19:00 25,3 C 35 % 1013 hPa 0,0 l/m
07.06.2007 20:00 24,0 C 39 % 1013 hPa 0,0 l/m
07.06.2007 21:00 21,6 C 49 % 1014 hPa 0,0 l/m
07.06.2007 22:00 19,3 C 56 % 1014 hPa 0,0 l/m
07.06.2007 23:00 18,2 C 60 % 1015 hPa 0,0 l/m
08.06.2007 00:00 17,2 C 63 % 1015 hPa 0,0 l/m
08.06.2007 01:00 16,0 C 70 % 1015 hPa 0,0 l/m
08.06.2007 02:00 14,9 C 75 % 1015 hPa 0,0 l/m
08.06.2007 03:00 14,1 C 81 % 1015 hPa 0,0 l/m
08.06.2007 04:00 13,5 C 86 % 1016 hPa 0,0 l/m
08.06.2007 05:00 13,0 C 90 % 1016 hPa 0,0 l/m
08.06.2007 06:00 13,4 C 93 % 1016 hPa 0,0 l/m
08.06.2007 07:00 15,3 C 95 % 1017 hPa 0,0 l/m
08.06.2007 08:00 16,4 C 91 % 1017 hPa 0,0 l/m
08.06.2007 09:00 18,0 C 78 % 1017 hPa 0,0 l/m
08.06.2007 10:00 18,4 C 75 % 1018 hPa 0,0 l/m
08.06.2007 11:00 19,4 C 70 % 1018 hPa 0,0 l/m
08.06.2007 12:00 22,0 C 60 % 1018 hPa 0,0 l/m
08.06.2007 13:00 23,4 C 53 % 1018 hPa 0,0 l/m
08.06.2007 14:00 24,8 C 47 % 1018 hPa 0,0 l/m
08.06.2007 15:00 25,8 C 41 % 1018 hPa 0,0 l/m
08.06.2007 16:00 26,1 C 38 % 1017 hPa 0,0 l/m
08.06.2007 17:00 26,1 C 35 % 1017 hPa 0,0 l/m
08.06.2007 18:00 26,2 C 35 % 1017 hPa 0,0 l/m
08.06.2007 19:00 26,2 C 35 % 1017 hPa 0,0 l/m
08.06.2007 20:00 25,3 C 39 % 1017 hPa 0,0 l/m
08.06.2007 21:00 21,9 C 53 % 1018 hPa 0,0 l/m
08.06.2007 22:00 21,0 C 59 % 1018 hPa 0,0 l/m
08.06.2007 23:00 20,6 C 61 % 1018 hPa 0,0 l/m
09.06.2007 00:00 17,2 C 76 % 1018 hPa 0,0 l/m
09.06.2007 01:00 16,2 C 81 % 1018 hPa 0,0 l/m
09.06.2007 02:00 15,5 C 84 % 1018 hPa 0,0 l/m
09.06.2007 03:00 14,8 C 87 % 1018 hPa 0,0 l/m
09.06.2007 04:00 14,2 C 89 % 1018 hPa 0,0 l/m
09.06.2007 05:00 13,8 C 91 % 1018 hPa 0,0 l/m
09.06.2007 06:00 13,7 C 91 % 1019 hPa 0,0 l/m
09.06.2007 07:00 13,7 C 91 % 1019 hPa 0,0 l/m
09.06.2007 08:00 18,1 C 83 % 1019 hPa 0,0 l/m
09.06.2007 09:00 21,1 C 67 % 1019 hPa 0,0 l/m
09.06.2007 10:00 23,0 C 61 % 1018 hPa 0,0 l/m
09.06.2007 11:00 24,5 C 53 % 1018 hPa 0,0 l/m
09.06.2007 12:00 25,4 C 45 % 1018 hPa 0,0 l/m
09.06.2007 13:00 25,6 C 42 % 1018 hPa 0,0 l/m
09.06.2007 14:00 24,2 C 49 % 1017 hPa 0,0 l/m
09.06.2007 15:00 24,4 C 50 % 1017 hPa 0,0 l/m
09.06.2007 16:00 24,0 C 48 % 1017 hPa 0,0 l/m
09.06.2007 17:00 23,1 C 54 % 1017 hPa 0,0 l/m
09.06.2007 18:00 23,1 C 51 % 1017 hPa 0,0 l/m
09.06.2007 19:00 22,3 C 54 % 1018 hPa 0,0 l/m
09.06.2007 20:00 20,8 C 58 % 1018 hPa 0,0 l/m
09.06.2007 21:00 19,4 C 62 % 1018 hPa 0,0 l/m
09.06.2007 22:00 17,5 C 70 % 1018 hPa 0,0 l/m
09.06.2007 23:00 16,1 C 78 % 1018 hPa 0,0 l/m
10.06.2007 00:00 15,2 C 83 % 1017 hPa 0,0 l/m
10.06.2007 01:00 14,5 C 86 % 1017 hPa 0,0 l/m
10.06.2007 02:00 14,0 C 89 % 1017 hPa 0,0 l/m
10.06.2007 03:00 13,6 C 92 % 1017 hPa 0,0 l/m
10.06.2007 04:00 12,9 C 92 % 1017 hPa 0,0 l/m
10.06.2007 05:00 12,5 C 94 % 1017 hPa 0,0 l/m
10.06.2007 06:00 12,6 C 95 % 1017 hPa 0,0 l/m
10.06.2007 07:00 14,6 C 93 % 1017 hPa 0,0 l/m
10.06.2007 08:00 17,9 C 82 % 1017 hPa 0,0 l/m
10.06.2007 09:00 20,4 C 69 % 1017 hPa 0,0 l/m
10.06.2007 10:00 23,1 C 58 % 1017 hPa 0,0 l/m
10.06.2007 11:00 25,0 C 49 % 1017 hPa 0,0 l/m
10.06.2007 12:00 26,1 C 41 % 1017 hPa 0,0 l/m
10.06.2007 13:00 25,9 C 41 % 1016 hPa 0,0 l/m
10.06.2007 14:00 27,2 C 30 % 1016 hPa 0,0 l/m
10.06.2007 15:00 27,1 C 31 % 1016 hPa 0,0 l/m
10.06.2007 16:00 25,5 C 41 % 1015 hPa 0,0 l/m
10.06.2007 17:00 24,5 C 44 % 1015 hPa 0,0 l/m
10.06.2007 18:00 24,9 C 45 % 1015 hPa 0,0 l/m
10.06.2007 19:00 25,3 C 41 % 1015 hPa 0,0 l/m
10.06.2007 20:00 23,0 C 50 % 1015 hPa 0,0 l/m
10.06.2007 21:00 20,7 C 60 % 1015 hPa 0,0 l/m
10.06.2007 22:00 19,4 C 67 % 1016 hPa 0,0 l/m
10.06.2007 23:00 18,4 C 72 % 1016 hPa 0,0 l/m
Min-Datum _ 04.06.07 10.06.07 06.06.07 -
_ Min-Zeit 05:45 14:40 18:37 -
Minimum _ 12,1 C 27 % 1012 hPa -
Max-Datum _ 07.06.07 04.06.07 04.06.07 04.06.07
_ Max-Zeit 16:21 07:10 00:00 00:00
Maximum _ 27,7 C 98 % 1020 hPa 0,0 l/m
Durchschnitt _ 19,4 C 66 % 1017 hPa #0,0 l/m

Durchschnitt Minimum Temp.18,8 C
Durchschnitt Maximum Temp.19,9 C